createdAt,value
2023-01-08T00:01:07.269Z,11.25
2023-01-08T00:03:36.400Z,9.00
2023-01-08T00:06:06.096Z,10.00
2023-01-08T00:08:33.658Z,10.00
2023-01-08T00:11:00.882Z,8.50
2023-01-08T00:13:28.356Z,7.00
2023-01-08T00:15:55.308Z,7.50
2023-01-08T00:18:22.428Z,8.75
2023-01-08T00:20:49.613Z,12.50
2023-01-08T00:23:18.525Z,11.00
2023-01-08T00:25:46.035Z,12.50
2023-01-08T00:28:15.226Z,12.00
2023-01-08T00:30:42.681Z,12.25
2023-01-08T00:33:10.883Z,11.00
2023-01-08T00:35:41.357Z,11.00
2023-01-08T00:38:08.341Z,12.50
2023-01-08T00:40:36.091Z,8.25
2023-01-08T00:43:03.958Z,11.00
2023-01-08T00:45:31.162Z,12.50
2023-01-08T00:47:58.523Z,6.50
2023-01-08T00:50:26.143Z,7.50
2023-01-08T00:52:53.185Z,8.00
2023-01-08T00:55:20.421Z,8.25
2023-01-08T00:57:47.323Z,6.00
2023-01-08T01:00:16.073Z,6.25
2023-01-08T01:02:43.961Z,6.00
2023-01-08T01:05:15.543Z,6.75
2023-01-08T01:07:43.219Z,4.00
2023-01-08T01:10:11.825Z,3.00
2023-01-08T01:12:39.551Z,2.75
2023-01-08T01:15:12.808Z,0.00
2023-01-08T01:17:41.565Z,3.50
2023-01-08T01:20:11.325Z,5.75
2023-01-08T01:22:39.176Z,2.50
2023-01-08T01:25:07.223Z,2.25
2023-01-08T01:27:34.159Z,1.75
2023-01-08T01:30:01.208Z,2.00
2023-01-08T01:32:28.157Z,2.00
2023-01-08T01:34:55.082Z,1.00
2023-01-08T01:37:22.009Z,4.50
2023-01-08T01:39:48.980Z,2.00
2023-01-08T01:42:37.183Z,4.50
2023-01-08T01:45:17.798Z,3.00
2023-01-08T01:47:50.034Z,2.50
2023-01-08T01:50:27.806Z,1.00
2023-01-08T01:53:04.814Z,5.50
2023-01-08T01:55:32.960Z,5.00
2023-01-08T01:58:13.715Z,3.00
2023-01-08T02:00:41.812Z,3.00
2023-01-08T02:03:11.488Z,1.75
2023-01-08T02:05:55.386Z,2.25
2023-01-08T02:09:13.284Z,2.00
2023-01-08T02:12:27.604Z,1.75
2023-01-08T02:15:41.882Z,1.00
2023-01-08T02:18:46.112Z,1.25
2023-01-08T02:22:07.481Z,0.75
2023-01-08T02:25:19.658Z,1.75
2023-01-08T02:28:06.275Z,2.00
2023-01-08T02:30:33.273Z,6.75
2023-01-08T02:33:00.197Z,2.00
2023-01-08T02:35:41.337Z,7.50
2023-01-08T02:38:13.532Z,6.00
2023-01-08T02:40:54.597Z,5.00
2023-01-08T02:43:32.553Z,2.75
2023-01-08T02:46:02.651Z,3.25
2023-01-08T02:48:40.496Z,4.00
2023-01-08T02:51:31.365Z,1.50
2023-01-08T02:54:02.575Z,3.00
2023-01-08T02:56:36.948Z,2.00
2023-01-08T02:59:07.654Z,1.00
2023-01-08T03:01:35.716Z,1.00
2023-01-08T03:04:08.450Z,2.00
2023-01-08T03:06:35.606Z,3.25
2023-01-08T03:09:02.685Z,10.75
2023-01-08T03:11:41.769Z,7.75
2023-01-08T03:14:30.708Z,19.33
2023-01-08T03:17:05.742Z,26.00
2023-01-08T03:19:42.359Z,26.00
2023-01-08T03:22:16.136Z,28.00
2023-01-08T03:24:47.046Z,24.33
2023-01-08T03:27:19.288Z,17.00
2023-01-08T03:29:49.639Z,13.00
2023-01-08T03:32:19.166Z,9.00
2023-01-08T03:34:48.922Z,12.00
2023-01-08T03:37:20.712Z,12.00
2023-01-08T03:40:04.722Z,9.00
2023-01-08T03:42:32.840Z,19.33
2023-01-08T03:45:03.474Z,19.33
2023-01-08T03:47:32.567Z,17.00
2023-01-08T03:50:03.510Z,17.00
2023-01-08T03:52:33.396Z,16.33
2023-01-08T03:55:00.398Z,12.67
2023-01-08T03:57:27.504Z,12.00
2023-01-08T03:59:54.423Z,8.67
2023-01-08T04:02:21.540Z,6.00
2023-01-08T04:04:48.865Z,5.00
2023-01-08T04:07:15.911Z,6.00
2023-01-08T04:09:42.869Z,8.00
2023-01-08T04:12:09.734Z,15.00
2023-01-08T04:14:36.606Z,19.33
2023-01-08T04:17:03.575Z,15.00
2023-01-08T04:19:30.482Z,15.00
2023-01-08T04:21:57.473Z,11.00
2023-01-08T04:24:24.741Z,20.00
2023-01-08T04:26:51.695Z,16.00
2023-01-08T04:29:18.626Z,11.67
2023-01-08T04:31:45.554Z,8.00
2023-01-08T04:34:12.528Z,7.33
2023-01-08T04:36:39.457Z,7.67
2023-01-08T04:39:07.761Z,5.00
2023-01-08T04:41:34.716Z,3.33
2023-01-08T04:44:04.969Z,4.00
2023-01-08T04:46:32.014Z,17.67
2023-01-08T04:48:58.957Z,19.00
2023-01-08T04:51:26.678Z,13.00
2023-01-08T04:53:53.643Z,12.00
2023-01-08T04:56:20.580Z,23.00
2023-01-08T04:58:47.623Z,22.00
2023-01-08T05:01:26.210Z,19.00
2023-01-08T05:03:55.345Z,35.67
2023-01-08T05:06:22.422Z,33.00
2023-01-08T05:08:49.491Z,28.33
2023-01-08T05:11:16.666Z,30.33
2023-01-08T05:13:43.934Z,33.33
2023-01-08T05:16:10.994Z,34.00
2023-01-08T05:18:37.933Z,38.00
2023-01-08T05:21:05.715Z,37.00
2023-01-08T05:23:33.853Z,29.33
2023-01-08T05:26:02.481Z,23.00
2023-01-08T05:28:30.709Z,18.67
2023-01-08T05:30:58.455Z,18.00
2023-01-08T05:33:26.407Z,9.33
2023-01-08T05:35:53.437Z,17.67
2023-01-08T05:38:20.374Z,22.67
2023-01-08T05:40:47.412Z,18.67
2023-01-08T05:43:14.419Z,19.00
2023-01-08T05:45:41.331Z,15.33
2023-01-08T05:48:08.561Z,17.33
2023-01-08T05:50:36.133Z,19.00
2023-01-08T05:53:06.805Z,21.33
2023-01-08T05:55:34.149Z,28.00
2023-01-08T05:58:04.902Z,28.00
2023-01-08T06:00:33.525Z,2.00
2023-01-08T06:03:00.606Z,31.33
2023-01-08T06:05:27.826Z,25.67
2023-01-08T06:07:54.780Z,19.00
2023-01-08T06:10:22.012Z,15.00
2023-01-08T06:12:48.891Z,12.00
2023-01-08T06:15:16.104Z,11.33
2023-01-08T06:17:43.269Z,13.67
2023-01-08T06:20:10.934Z,18.33
2023-01-08T06:22:38.204Z,21.67
2023-01-08T06:25:05.588Z,11.33
2023-01-08T06:27:32.490Z,11.00
2023-01-08T06:29:59.405Z,8.33
2023-01-08T06:32:26.323Z,5.00
2023-01-08T06:34:53.264Z,5.00
2023-01-08T06:37:20.206Z,7.00
2023-01-08T06:39:47.121Z,33.75
2023-01-08T06:42:14.019Z,29.00
2023-01-08T06:44:40.985Z,23.67
2023-01-08T06:47:07.959Z,28.00
2023-01-08T06:49:34.855Z,33.33
2023-01-08T06:52:01.796Z,36.00
2023-01-08T06:54:28.798Z,24.33
2023-01-08T06:56:55.743Z,25.33
2023-01-08T06:59:22.696Z,29.00
2023-01-08T07:01:50.145Z,32.00
2023-01-08T07:04:18.270Z,38.00
2023-01-08T07:06:45.469Z,28.00
2023-01-08T07:09:13.703Z,24.00
2023-01-08T07:11:43.941Z,18.33
2023-01-08T07:14:11.141Z,13.00
2023-01-08T07:16:38.191Z,14.33
2023-01-08T07:19:05.381Z,11.67
2023-01-08T07:21:32.345Z,19.67
2023-01-08T07:23:59.830Z,30.00
2023-01-08T07:26:26.887Z,29.00
2023-01-08T07:28:54.057Z,20.33
2023-01-08T07:31:21.132Z,17.33
2023-01-08T07:33:48.165Z,13.33
2023-01-08T07:36:15.955Z,11.33
2023-01-08T07:38:43.537Z,6.00
2023-01-08T07:41:10.724Z,19.67
2023-01-08T07:43:37.625Z,22.00
2023-01-08T07:46:04.953Z,23.67
2023-01-08T07:48:32.606Z,28.67
2023-01-08T07:51:03.955Z,29.00
2023-01-08T07:53:30.961Z,22.00
2023-01-08T07:56:05.490Z,16.33
2023-01-08T07:58:32.484Z,15.33
2023-01-08T08:00:59.640Z,25.00
2023-01-08T08:03:27.243Z,16.33
2023-01-08T08:05:54.406Z,24.67
2023-01-08T08:08:21.387Z,16.00
2023-01-08T08:10:48.390Z,14.00
2023-01-08T08:13:15.328Z,11.33
2023-01-08T08:15:42.402Z,8.67
2023-01-08T08:18:10.996Z,8.00
2023-01-08T08:20:38.492Z,4.00
2023-01-08T08:23:10.980Z,9.00
2023-01-08T08:25:37.931Z,6.00
2023-01-08T08:28:05.710Z,10.00
2023-01-08T08:30:35.279Z,9.00
2023-01-08T08:33:04.227Z,9.00
2023-01-08T08:35:32.102Z,6.00
2023-01-08T08:37:59.879Z,6.00
2023-01-08T08:40:27.530Z,4.75
2023-01-08T08:43:02.912Z,4.50
2023-01-08T08:45:30.398Z,3.00
2023-01-08T08:47:57.529Z,6.00
2023-01-08T08:50:24.936Z,5.00
2023-01-08T08:52:52.007Z,7.00
2023-01-08T08:55:19.066Z,5.50
2023-01-08T08:57:47.198Z,33.00
2023-01-08T09:00:14.775Z,39.00
2023-01-08T09:02:41.947Z,35.00
2023-01-08T09:05:09.051Z,35.33
2023-01-08T09:07:37.156Z,31.33
2023-01-08T09:10:04.706Z,26.00
2023-01-08T09:12:31.647Z,20.00
2023-01-08T09:14:58.851Z,18.33
2023-01-08T09:17:26.176Z,21.33
2023-01-08T09:19:53.496Z,19.00
2023-01-08T09:22:21.210Z,19.75
2023-01-08T09:24:48.169Z,18.75
2023-01-08T09:27:15.598Z,16.25
2023-01-08T09:29:42.588Z,15.00
2023-01-08T09:32:09.970Z,8.00
2023-01-08T09:34:37.120Z,5.00
2023-01-08T09:37:05.352Z,11.25
2023-01-08T09:39:33.222Z,6.00
2023-01-08T09:42:04.672Z,5.25
2023-01-08T09:44:39.238Z,8.25
2023-01-08T09:47:19.517Z,6.50
2023-01-08T09:49:48.184Z,8.00
2023-01-08T09:52:16.304Z,17.00
2023-01-08T09:54:43.295Z,14.75
2023-01-08T09:57:20.674Z,18.75
2023-01-08T09:59:49.797Z,10.25
2023-01-08T10:02:24.581Z,8.25
2023-01-08T10:05:00.447Z,8.25
2023-01-08T10:07:30.662Z,7.00
2023-01-08T10:09:57.695Z,7.50
2023-01-08T10:12:32.726Z,7.00
2023-01-08T10:15:03.638Z,6.00
2023-01-08T10:17:41.195Z,3.00
2023-01-08T10:20:22.705Z,7.00
2023-01-08T10:22:50.484Z,6.00
2023-01-08T10:25:22.087Z,7.00
2023-01-08T10:27:55.435Z,6.25
2023-01-08T10:30:29.608Z,5.75
2023-01-08T10:32:59.010Z,6.00
2023-01-08T10:35:34.693Z,5.00
2023-01-08T10:38:02.462Z,2.50
2023-01-08T10:40:45.867Z,4.00
2023-01-08T10:43:17.665Z,3.25
2023-01-08T10:45:57.273Z,2.00
2023-01-08T10:48:30.379Z,2.00
2023-01-08T10:51:13.620Z,3.00
2023-01-08T10:53:41.731Z,2.25
2023-01-08T10:56:20.764Z,1.75
2023-01-08T10:58:48.553Z,3.00
2023-01-08T11:01:24.090Z,1.25
2023-01-08T11:03:54.269Z,3.00
2023-01-08T11:06:33.108Z,3.00
2023-01-08T11:09:03.201Z,3.00
2023-01-08T11:11:35.871Z,2.00
2023-01-08T11:14:06.733Z,3.00
2023-01-08T11:16:43.643Z,3.00
2023-01-08T11:19:19.855Z,2.50
2023-01-08T11:22:01.772Z,4.00
2023-01-08T11:24:32.616Z,9.00
2023-01-08T11:27:10.936Z,8.75
2023-01-08T11:29:45.909Z,12.00
2023-01-08T11:32:15.876Z,7.50
2023-01-08T11:34:56.125Z,4.00
2023-01-08T11:37:39.554Z,2.00
2023-01-08T11:40:18.644Z,5.50
2023-01-08T11:43:01.741Z,3.75
2023-01-08T11:45:40.774Z,3.25
2023-01-08T11:48:45.379Z,6.25
2023-01-08T11:51:43.284Z,9.50
2023-01-08T11:54:36.829Z,10.75
2023-01-08T11:57:54.895Z,9.00
2023-01-08T12:01:11.293Z,11.00
2023-01-08T12:03:47.423Z,23.00
2023-01-08T12:06:17.125Z,18.25
2023-01-08T12:09:09.525Z,20.50
2023-01-08T12:11:43.489Z,21.50
2023-01-08T12:14:38.247Z,16.75
2023-01-08T12:17:27.645Z,15.75
2023-01-08T12:20:12.064Z,13.00
2023-01-08T12:22:50.598Z,9.00
2023-01-08T12:25:35.957Z,4.00
2023-01-08T12:28:22.850Z,6.50
2023-01-08T12:31:07.025Z,6.00
2023-01-08T12:33:54.478Z,4.00
2023-01-08T12:36:28.994Z,3.00
2023-01-08T12:39:03.148Z,6.00
2023-01-08T12:41:35.158Z,6.00
2023-01-08T12:44:10.462Z,4.50
2023-01-08T12:46:39.691Z,5.00
2023-01-08T12:49:08.481Z,3.00
2023-01-08T12:51:40.305Z,3.00
2023-01-08T12:54:13.425Z,4.00
2023-01-08T12:56:49.101Z,5.25
2023-01-08T12:59:36.226Z,7.25
2023-01-08T13:02:11.058Z,6.00
2023-01-08T13:04:47.002Z,21.25
2023-01-08T13:07:21.614Z,31.00
2023-01-08T13:10:03.538Z,26.50
2023-01-08T13:12:41.440Z,26.00
2023-01-08T13:15:09.106Z,23.25
2023-01-08T13:17:38.249Z,16.00
2023-01-08T13:20:07.511Z,13.50
2023-01-08T13:22:37.199Z,7.50
2023-01-08T13:25:17.256Z,9.50
2023-01-08T13:27:45.727Z,13.00
2023-01-08T13:30:31.840Z,10.25
2023-01-08T13:32:59.255Z,9.00
2023-01-08T13:35:29.888Z,9.00
2023-01-08T13:38:11.902Z,4.00
2023-01-08T13:40:44.748Z,7.00
2023-01-08T13:43:36.883Z,6.00
2023-01-08T13:46:03.804Z,6.25
2023-01-08T13:48:36.492Z,8.50
2023-01-08T13:51:04.321Z,8.00
2023-01-08T13:53:32.546Z,7.00
2023-01-08T13:56:02.752Z,3.00
2023-01-08T13:58:36.292Z,4.00
2023-01-08T14:01:05.205Z,3.25
2023-01-08T14:03:44.815Z,3.50
2023-01-08T14:06:26.191Z,3.75
2023-01-08T14:09:00.503Z,4.00
2023-01-08T14:11:46.036Z,4.00
2023-01-08T14:14:18.207Z,19.75
2023-01-08T14:16:47.621Z,19.25
2023-01-08T14:19:23.104Z,11.00
2023-01-08T14:21:52.827Z,11.25
2023-01-08T14:24:22.645Z,8.00
2023-01-08T14:27:00.481Z,7.00
2023-01-08T14:29:31.004Z,5.50
2023-01-08T14:32:01.443Z,7.00
2023-01-08T14:34:53.800Z,6.00
2023-01-08T14:37:20.963Z,8.50
2023-01-08T14:39:55.055Z,14.75
2023-01-08T14:42:44.559Z,11.00
2023-01-08T14:45:11.557Z,10.75
2023-01-08T14:47:45.935Z,15.25
2023-01-08T14:50:27.790Z,15.00
2023-01-08T14:53:17.904Z,11.00
2023-01-08T14:55:49.225Z,21.00
2023-01-08T14:58:21.015Z,23.25
2023-01-08T15:00:54.217Z,21.00
2023-01-08T15:03:32.354Z,32.33
2023-01-08T15:05:59.926Z,27.67
2023-01-08T15:08:38.654Z,45.33
2023-01-08T15:11:15.738Z,54.25
2023-01-08T15:13:42.679Z,54.00
2023-01-08T15:16:16.641Z,41.00
2023-01-08T15:18:50.285Z,35.00
2023-01-08T15:21:20.034Z,28.67
2023-01-08T15:23:50.398Z,25.00
2023-01-08T15:26:18.110Z,25.00
2023-01-08T15:29:06.912Z,21.33
2023-01-08T15:31:39.616Z,36.33
2023-01-08T15:34:08.961Z,33.00
2023-01-08T15:36:35.949Z,35.33
2023-01-08T15:39:03.713Z,39.25
2023-01-08T15:41:59.157Z,41.75
2023-01-08T15:44:26.249Z,37.00
2023-01-08T15:46:53.518Z,30.33
2023-01-08T15:49:20.622Z,28.67
2023-01-08T15:51:49.856Z,22.00
2023-01-08T15:54:17.227Z,35.67
2023-01-08T15:56:44.272Z,33.00
2023-01-08T15:59:12.103Z,29.67
2023-01-08T16:01:39.315Z,27.67
2023-01-08T16:04:06.684Z,25.00
2023-01-08T16:06:33.895Z,18.75
2023-01-08T16:09:01.657Z,14.25
2023-01-08T16:11:28.650Z,17.75
2023-01-08T16:13:55.750Z,29.33
2023-01-08T16:16:22.729Z,29.33
2023-01-08T16:18:49.706Z,27.00
2023-01-08T16:21:18.269Z,25.00
2023-01-08T16:23:45.138Z,24.00
2023-01-08T16:26:17.383Z,21.75
2023-01-08T16:28:44.742Z,14.00
2023-01-08T16:31:11.757Z,19.33
2023-01-08T16:33:39.019Z,41.75
2023-01-08T16:36:08.450Z,38.67
2023-01-08T16:38:36.256Z,37.00
2023-01-08T16:41:04.437Z,45.00
2023-01-08T16:43:39.897Z,50.00
2023-01-08T16:46:18.259Z,43.25
2023-01-08T16:48:46.997Z,36.67
2023-01-08T16:51:14.364Z,32.33
2023-01-08T16:53:41.806Z,31.00
2023-01-08T16:56:09.875Z,26.00
2023-01-08T16:58:37.485Z,25.67
2023-01-08T17:01:10.787Z,26.00
2023-01-08T17:03:39.014Z,16.33
2023-01-08T17:06:10.770Z,17.00
2023-01-08T17:08:40.431Z,16.00
2023-01-08T17:11:12.670Z,19.00
2023-01-08T17:13:40.098Z,15.00
2023-01-08T17:16:15.722Z,16.67
2023-01-08T17:18:42.918Z,16.25
2023-01-08T17:21:11.880Z,11.50
2023-01-08T17:23:39.786Z,11.25
2023-01-08T17:26:14.054Z,12.25
2023-01-08T17:28:41.146Z,9.50
2023-01-08T17:31:13.445Z,17.25
2023-01-08T17:33:40.498Z,23.00
2023-01-08T17:36:16.931Z,25.33
2023-01-08T17:38:44.016Z,16.33
2023-01-08T17:41:11.205Z,15.50
2023-01-08T17:43:39.426Z,19.00
2023-01-08T17:46:07.594Z,40.25
2023-01-08T17:48:34.898Z,31.00
2023-01-08T17:51:07.949Z,33.00
2023-01-08T17:53:36.238Z,28.33
2023-01-08T17:56:05.897Z,26.00
2023-01-08T17:58:33.199Z,26.00
2023-01-08T18:01:00.226Z,22.00
2023-01-08T18:03:27.167Z,14.50
2023-01-08T18:05:54.063Z,11.25
2023-01-08T18:08:20.982Z,13.25
2023-01-08T18:10:48.853Z,23.00
2023-01-08T18:13:15.733Z,13.00
2023-01-08T18:15:42.649Z,14.25
2023-01-08T18:18:09.548Z,11.00
2023-01-08T18:20:39.421Z,14.00
2023-01-08T18:23:06.433Z,33.00
2023-01-08T18:25:33.339Z,37.00
2023-01-08T18:28:00.648Z,31.67
2023-01-08T18:30:29.247Z,25.33
2023-01-08T18:32:58.907Z,24.00
2023-01-08T18:35:25.810Z,20.33
2023-01-08T18:37:52.698Z,20.33
2023-01-08T18:40:19.767Z,14.00
2023-01-08T18:42:48.171Z,19.00
2023-01-08T18:45:15.419Z,15.75
2023-01-08T18:47:42.878Z,11.00
2023-01-08T18:50:10.855Z,10.25
2023-01-08T18:52:39.794Z,11.00
2023-01-08T18:55:06.996Z,18.00
2023-01-08T18:57:33.861Z,10.75
2023-01-08T19:00:00.844Z,20.00
2023-01-08T19:02:28.116Z,9.50
2023-01-08T19:04:55.080Z,14.00
2023-01-08T19:07:22.050Z,29.67
2023-01-08T19:09:49.049Z,37.67
2023-01-08T19:12:15.963Z,37.00
2023-01-08T19:14:42.996Z,42.75
2023-01-08T19:17:09.937Z,38.00
2023-01-08T19:19:36.955Z,37.00
2023-01-08T19:22:03.873Z,33.33
2023-01-08T19:24:32.661Z,38.00
2023-01-08T19:26:59.544Z,41.00
2023-01-08T19:29:26.502Z,35.33
2023-01-08T19:31:53.410Z,33.00
2023-01-08T19:34:20.406Z,31.67
2023-01-08T19:36:47.566Z,27.33
2023-01-08T19:39:14.514Z,24.33
2023-01-08T19:41:59.901Z,19.25
2023-01-08T19:44:26.822Z,29.00
2023-01-08T19:46:53.714Z,39.00
2023-01-08T19:49:20.643Z,47.25
2023-01-08T19:51:47.573Z,57.25
2023-01-08T19:54:14.965Z,44.50
2023-01-08T19:56:41.911Z,43.50
2023-01-08T19:59:11.276Z,38.00
2023-01-08T20:01:40.512Z,39.00
2023-01-08T20:04:08.283Z,53.25
2023-01-08T20:06:35.255Z,70.25
2023-01-08T20:09:02.838Z,55.00
2023-01-08T20:11:30.219Z,43.25
2023-01-08T20:14:01.057Z,39.00
2023-01-08T20:16:30.928Z,35.33
2023-01-08T20:19:02.547Z,35.33
2023-01-08T20:21:30.293Z,30.67
2023-01-08T20:24:00.579Z,25.00
2023-01-08T20:26:30.104Z,28.00
2023-01-08T20:28:58.421Z,44.00
2023-01-08T20:31:29.838Z,43.00
2023-01-08T20:33:58.404Z,38.00
2023-01-08T20:36:28.474Z,34.00
2023-01-08T20:38:57.897Z,38.67
2023-01-08T20:41:26.710Z,36.00
2023-01-08T20:43:57.628Z,37.33
2023-01-08T20:46:30.511Z,27.33
2023-01-08T20:49:03.906Z,27.67
2023-01-08T20:51:36.473Z,24.33
2023-01-08T20:54:05.686Z,23.33
2023-01-08T20:56:32.831Z,7.25
2023-01-08T20:59:01.260Z,13.25
2023-01-08T21:01:31.639Z,11.00
2023-01-08T21:03:59.095Z,11.00
2023-01-08T21:06:28.771Z,9.25
2023-01-08T21:09:00.901Z,7.00
2023-01-08T21:11:30.501Z,13.25
2023-01-08T21:13:57.406Z,8.75
2023-01-08T21:16:28.623Z,31.33
2023-01-08T21:18:56.324Z,25.67
2023-01-08T21:21:29.031Z,22.33
2023-01-08T21:23:57.499Z,29.00
2023-01-08T21:26:24.669Z,25.00
2023-01-08T21:28:52.328Z,6.67
2023-01-08T21:31:22.567Z,16.75
2023-01-08T21:33:49.942Z,16.00
2023-01-08T21:36:22.846Z,13.00
2023-01-08T21:38:50.561Z,19.50
2023-01-08T21:41:46.540Z,39.33
2023-01-08T21:44:37.905Z,56.75
2023-01-08T21:47:07.693Z,59.00
2023-01-08T21:49:36.262Z,57.75
2023-01-08T21:52:22.709Z,49.00
2023-01-08T21:54:49.834Z,43.00
2023-01-08T21:57:17.042Z,37.33
2023-01-08T21:59:45.018Z,39.00
2023-01-08T22:02:16.231Z,32.33
2023-01-08T22:04:44.537Z,32.67
2023-01-08T22:07:12.462Z,33.00
2023-01-08T22:09:40.601Z,16.00
2023-01-08T22:12:08.144Z,27.00
2023-01-08T22:14:35.625Z,20.00
2023-01-08T22:17:04.344Z,18.75
2023-01-08T22:19:31.581Z,15.50
2023-01-08T22:21:58.500Z,11.00
2023-01-08T22:24:25.387Z,11.50
2023-01-08T22:26:52.313Z,13.75
2023-01-08T22:29:19.234Z,10.00
2023-01-08T22:31:46.309Z,20.00
2023-01-08T22:34:17.393Z,9.75
2023-01-08T22:36:52.129Z,18.25
2023-01-08T22:39:19.618Z,31.33
2023-01-08T22:41:46.492Z,36.00
2023-01-08T22:44:13.843Z,35.33
2023-01-08T22:46:41.441Z,42.25
2023-01-08T22:49:11.375Z,34.67
2023-01-08T22:51:38.860Z,33.00
2023-01-08T22:54:06.537Z,27.00
2023-01-08T22:56:33.468Z,28.00
2023-01-08T22:59:00.419Z,24.33
2023-01-08T23:01:28.000Z,21.33
2023-01-08T23:03:58.267Z,15.00
2023-01-08T23:06:27.894Z,15.25
2023-01-08T23:08:56.001Z,12.00
2023-01-08T23:11:23.747Z,12.50
2023-01-08T23:13:51.428Z,11.25
2023-01-08T23:16:24.185Z,8.25
2023-01-08T23:18:51.968Z,9.75
2023-01-08T23:21:21.231Z,9.75
2023-01-08T23:23:48.808Z,11.75
2023-01-08T23:26:27.243Z,16.00
2023-01-08T23:28:55.274Z,10.75
2023-01-08T23:31:24.775Z,17.25
2023-01-08T23:33:52.697Z,20.00
2023-01-08T23:36:21.417Z,21.75
2023-01-08T23:38:50.734Z,14.75
2023-01-08T23:41:18.822Z,33.00
2023-01-08T23:43:46.268Z,23.00
2023-01-08T23:46:13.931Z,25.67
2023-01-08T23:48:41.512Z,45.25
2023-01-08T23:51:08.741Z,39.33
2023-01-08T23:53:35.687Z,34.67
2023-01-08T23:56:02.639Z,45.25
2023-01-08T23:58:29.989Z,37.33
